sensor_id;sensor_type;location;lat;lon;timestamp;pressure;altitude;pressure_sealevel;temperature;humidity
44988;BME280;35735;52.226;21.254;2023-12-20T00:01:27;99519.97;;;6.37;100.00
44988;BME280;35735;52.226;21.254;2023-12-20T00:06:27;99503.84;;;6.29;100.00
44988;BME280;35735;52.226;21.254;2023-12-20T00:11:28;99492.25;;;6.29;100.00
44988;BME280;35735;52.226;21.254;2023-12-20T00:16:29;99486.00;;;6.32;100.00
44988;BME280;35735;52.226;21.254;2023-12-20T00:21:29;99484.19;;;6.29;100.00
44988;BME280;35735;52.226;21.254;2023-12-20T00:26:30;99483.31;;;6.27;100.00
44988;BME280;35735;52.226;21.254;2023-12-20T00:31:31;99475.28;;;6.27;100.00
44988;BME280;35735;52.226;21.254;2023-12-20T00:36:31;99474.38;;;6.31;100.00
44988;BME280;35735;52.226;21.254;2023-12-20T00:41:32;99472.59;;;6.30;100.00
44988;BME280;35735;52.226;21.254;2023-12-20T00:46:32;99459.19;;;6.33;100.00
44988;BME280;35735;52.226;21.254;2023-12-20T00:51:33;99461.00;;;6.36;100.00
44988;BME280;35735;52.226;21.254;2023-12-20T00:56:33;99456.50;;;6.36;100.00
44988;BME280;35735;52.226;21.254;2023-12-20T01:01:34;99449.38;;;6.32;100.00
44988;BME280;35735;52.226;21.254;2023-12-20T01:06:34;99443.13;;;6.32;100.00
44988;BME280;35735;52.226;21.254;2023-12-20T01:11:35;99447.59;;;6.34;100.00
44988;BME280;35735;52.226;21.254;2023-12-20T01:16:36;99439.56;;;6.36;100.00
44988;BME280;35735;52.226;21.254;2023-12-20T01:21:36;99443.13;;;6.38;100.00
44988;BME280;35735;52.226;21.254;2023-12-20T01:26:37;99440.44;;;6.42;100.00
44988;BME280;35735;52.226;21.254;2023-12-20T01:31:38;99444.03;;;6.44;100.00
44988;BME280;35735;52.226;21.254;2023-12-20T01:36:38;99427.94;;;6.44;100.00
44988;BME280;35735;52.226;21.254;2023-12-20T01:41:39;99420.81;;;6.43;100.00
44988;BME280;35735;52.226;21.254;2023-12-20T01:46:39;99418.12;;;6.37;100.00
44988;BME280;35735;52.226;21.254;2023-12-20T01:51:40;99410.06;;;6.37;100.00
44988;BME280;35735;52.226;21.254;2023-12-20T01:56:42;99408.28;;;6.36;100.00
44988;BME280;35735;52.226;21.254;2023-12-20T02:01:43;99397.56;;;6.36;100.00
44988;BME280;35735;52.226;21.254;2023-12-20T02:06:44;99401.13;;;6.41;100.00
44988;BME280;35735;52.226;21.254;2023-12-20T02:11:46;99406.50;;;6.47;100.00
44988;BME280;35735;52.226;21.254;2023-12-20T02:16:47;99405.59;;;6.42;100.00
44988;BME280;35735;52.226;21.254;2023-12-20T02:21:48;99392.19;;;6.42;100.00
44988;BME280;35735;52.226;21.254;2023-12-20T02:26:48;99387.72;;;6.43;100.00
44988;BME280;35735;52.226;21.254;2023-12-20T02:31:49;99383.28;;;6.45;100.00
44988;BME280;35735;52.226;21.254;2023-12-20T02:36:50;99385.03;;;6.41;100.00
44988;BME280;35735;52.226;21.254;2023-12-20T02:41:50;99376.13;;;6.39;100.00
44988;BME280;35735;52.226;21.254;2023-12-20T02:46:51;99369.88;;;6.40;100.00
44988;BME280;35735;52.226;21.254;2023-12-20T02:51:51;99373.44;;;6.38;100.00
44988;BME280;35735;52.226;21.254;2023-12-20T02:56:52;99358.28;;;6.38;100.00
44988;BME280;35735;52.226;21.254;2023-12-20T03:01:52;99357.34;;;6.36;100.00
44988;BME280;35735;52.226;21.254;2023-12-20T03:06:53;99349.31;;;6.36;100.00
44988;BME280;35735;52.226;21.254;2023-12-20T03:11:54;99352.91;;;6.37;100.00
44988;BME280;35735;52.226;21.254;2023-12-20T03:16:54;99353.78;;;6.36;100.00
44988;BME280;35735;52.226;21.254;2023-12-20T03:21:55;99351.09;;;6.36;100.00
44988;BME280;35735;52.226;21.254;2023-12-20T03:26:55;99348.44;;;6.37;100.00
44988;BME280;35735;52.226;21.254;2023-12-20T03:31:56;99342.16;;;6.41;100.00
44988;BME280;35735;52.226;21.254;2023-12-20T03:36:56;99354.69;;;6.48;100.00
44988;BME280;35735;52.226;21.254;2023-12-20T03:41:57;99355.56;;;6.47;100.00
44988;BME280;35735;52.226;21.254;2023-12-20T03:46:57;99342.16;;;6.51;100.00
44988;BME280;35735;52.226;21.254;2023-12-20T03:51:58;99340.38;;;6.49;100.00
44988;BME280;35735;52.226;21.254;2023-12-20T03:56:58;99340.38;;;6.49;100.00
44988;BME280;35735;52.226;21.254;2023-12-20T04:01:59;99340.38;;;6.53;100.00
44988;BME280;35735;52.226;21.254;2023-12-20T04:06:59;99342.16;;;6.57;100.00
44988;BME280;35735;52.226;21.254;2023-12-20T04:12:00;99343.06;;;6.63;100.00
44988;BME280;35735;52.226;21.254;2023-12-20T04:17:00;99327.84;;;6.59;100.00
44988;BME280;35735;52.226;21.254;2023-12-20T04:22:01;99338.56;;;6.64;100.00
44988;BME280;35735;52.226;21.254;2023-12-20T04:27:02;99329.66;;;6.63;100.00
44988;BME280;35735;52.226;21.254;2023-12-20T04:32:04;99334.09;;;6.60;100.00
44988;BME280;35735;52.226;21.254;2023-12-20T04:37:05;99325.16;;;6.64;100.00
44988;BME280;35735;52.226;21.254;2023-12-20T04:42:06;99335.91;;;6.59;100.00
44988;BME280;35735;52.226;21.254;2023-12-20T04:47:06;99327.84;;;6.61;100.00
44988;BME280;35735;52.226;21.254;2023-12-20T04:52:07;99335.91;;;6.56;100.00
44988;BME280;35735;52.226;21.254;2023-12-20T04:57:07;99331.44;;;6.57;100.00
44988;BME280;35735;52.226;21.254;2023-12-20T05:02:08;99334.12;;;6.57;100.00
44988;BME280;35735;52.226;21.254;2023-12-20T05:07:08;99333.22;;;6.56;100.00
44988;BME280;35735;52.226;21.254;2023-12-20T05:12:09;99329.66;;;6.59;100.00
44988;BME280;35735;52.226;21.254;2023-12-20T05:17:10;99324.28;;;6.62;100.00
44988;BME280;35735;52.226;21.254;2023-12-20T05:22:10;99316.22;;;6.66;100.00
44988;BME280;35735;52.226;21.254;2023-12-20T05:27:11;99312.66;;;6.63;100.00
44988;BME280;35735;52.226;21.254;2023-12-20T05:32:11;99310.88;;;6.65;100.00
44988;BME280;35735;52.226;21.254;2023-12-20T05:37:12;99314.44;;;6.67;100.00
44988;BME280;35735;52.226;21.254;2023-12-20T05:42:12;99307.28;;;6.69;100.00
44988;BME280;35735;52.226;21.254;2023-12-20T05:47:13;99306.41;;;6.68;100.00
44988;BME280;35735;52.226;21.254;2023-12-20T05:52:13;99305.47;;;6.70;100.00
44988;BME280;35735;52.226;21.254;2023-12-20T05:57:14;99309.97;;;6.69;100.00
44988;BME280;35735;52.226;21.254;2023-12-20T06:02:15;99309.09;;;6.72;100.00
44988;BME280;35735;52.226;21.254;2023-12-20T06:07:16;99308.16;;;6.71;100.00
44988;BME280;35735;52.226;21.254;2023-12-20T06:12:17;99300.13;;;6.68;100.00
44988;BME280;35735;52.226;21.254;2023-12-20T06:17:17;99303.72;;;6.64;100.00
44988;BME280;35735;52.226;21.254;2023-12-20T06:22:18;99312.66;;;6.63;100.00
44988;BME280;35735;52.226;21.254;2023-12-20T06:27:18;99306.41;;;6.67;100.00
44988;BME280;35735;52.226;21.254;2023-12-20T06:32:19;99309.09;;;6.65;100.00
44988;BME280;35735;52.226;21.254;2023-12-20T06:37:19;99318.00;;;6.63;100.00
44988;BME280;35735;52.226;21.254;2023-12-20T06:42:20;99311.75;;;6.64;100.00
44988;BME280;35735;52.226;21.254;2023-12-20T06:47:20;99311.75;;;6.64;100.00
44988;BME280;35735;52.226;21.254;2023-12-20T06:52:21;99307.28;;;6.63;100.00
44988;BME280;35735;52.226;21.254;2023-12-20T06:57:22;99313.56;;;6.62;100.00
44988;BME280;35735;52.226;21.254;2023-12-20T07:02:22;99315.37;;;6.57;100.00
44988;BME280;35735;52.226;21.254;2023-12-20T07:07:23;99313.56;;;6.51;100.00
44988;BME280;35735;52.226;21.254;2023-12-20T07:12:23;99312.69;;;6.51;100.00
44988;BME280;35735;52.226;21.254;2023-12-20T07:17:24;99310.88;;;6.49;100.00
44988;BME280;35735;52.226;21.254;2023-12-20T07:22:25;99310.00;;;6.51;100.00
44988;BME280;35735;52.226;21.254;2023-12-20T07:27:26;99308.19;;;6.49;100.00
44988;BME280;35735;52.226;21.254;2023-12-20T07:32:26;99314.44;;;6.56;100.00
44988;BME280;35735;52.226;21.254;2023-12-20T07:37:27;99317.13;;;6.58;100.00
44988;BME280;35735;52.226;21.254;2023-12-20T07:42:27;99320.72;;;6.55;100.00
44988;BME280;35735;52.226;21.254;2023-12-20T07:47:28;99311.75;;;6.55;100.00
44988;BME280;35735;52.226;21.254;2023-12-20T07:52:29;99317.13;;;6.55;100.00
44988;BME280;35735;52.226;21.254;2023-12-20T07:57:30;99317.16;;;6.52;100.00
44988;BME280;35735;52.226;21.254;2023-12-20T08:02:30;99313.56;;;6.49;100.00
44988;BME280;35735;52.226;21.254;2023-12-20T08:07:31;99311.78;;;6.52;100.00
44988;BME280;35735;52.226;21.254;2023-12-20T08:12:31;99310.00;;;6.51;100.00
44988;BME280;35735;52.226;21.254;2023-12-20T08:17:32;99322.53;;;6.45;100.00
44988;BME280;35735;52.226;21.254;2023-12-20T08:22:32;99310.88;;;6.48;100.00
44988;BME280;35735;52.226;21.254;2023-12-20T08:27:33;99314.47;;;6.50;100.00
44988;BME280;35735;52.226;21.254;2023-12-20T08:32:34;99315.34;;;6.47;100.00
44988;BME280;35735;52.226;21.254;2023-12-20T08:37:34;99311.78;;;6.48;100.00
44988;BME280;35735;52.226;21.254;2023-12-20T08:42:35;99313.56;;;6.53;100.00
44988;BME280;35735;52.226;21.254;2023-12-20T08:47:35;99312.69;;;6.58;100.00
44988;BME280;35735;52.226;21.254;2023-12-20T08:52:36;99318.03;;;6.57;100.00
44988;BME280;35735;52.226;21.254;2023-12-20T08:57:36;99316.25;;;6.59;100.00
44988;BME280;35735;52.226;21.254;2023-12-20T09:02:37;99310.00;;;6.57;100.00
44988;BME280;35735;52.226;21.254;2023-12-20T09:07:37;99309.09;;;6.55;100.00
44988;BME280;35735;52.226;21.254;2023-12-20T09:12:38;99290.31;;;6.55;100.00
44988;BME280;35735;52.226;21.254;2023-12-20T09:17:39;99297.47;;;6.53;100.00
44988;BME280;35735;52.226;21.254;2023-12-20T09:22:39;99288.56;;;6.55;100.00
44988;BME280;35735;52.226;21.254;2023-12-20T09:27:40;99277.81;;;6.57;100.00
44988;BME280;35735;52.226;21.254;2023-12-20T09:32:41;99276.91;;;6.59;100.00
44988;BME280;35735;52.226;21.254;2023-12-20T09:37:41;99270.66;;;6.59;100.00
44988;BME280;35735;52.226;21.254;2023-12-20T09:42:55;99256.34;;;6.60;100.00
44988;BME280;35735;52.226;21.254;2023-12-20T09:47:58;99258.16;;;6.61;100.00
44988;BME280;35735;52.226;21.254;2023-12-20T09:53:00;99251.91;;;6.63;100.00
44988;BME280;35735;52.226;21.254;2023-12-20T09:58:01;99250.09;;;6.62;100.00
44988;BME280;35735;52.226;21.254;2023-12-20T10:03:03;99245.63;;;6.63;100.00
44988;BME280;35735;52.226;21.254;2023-12-20T10:08:04;99237.56;;;6.64;100.00
44988;BME280;35735;52.226;21.254;2023-12-20T10:13:07;99243.84;;;6.59;100.00
44988;BME280;35735;52.226;21.254;2023-12-20T10:18:09;99239.37;;;6.62;100.00
44988;BME280;35735;52.226;21.254;2023-12-20T10:23:10;99242.94;;;6.63;100.00
44988;BME280;35735;52.226;21.254;2023-12-20T10:33:13;99234.94;;;6.57;100.00
44988;BME280;35735;52.226;21.254;2023-12-20T10:38:14;99233.13;;;6.59;100.00
44988;BME280;35735;52.226;21.254;2023-12-20T10:43:15;99232.25;;;6.57;100.00
44988;BME280;35735;52.226;21.254;2023-12-20T10:48:16;99225.09;;;6.62;100.00
44988;BME280;35735;52.226;21.254;2023-12-20T10:53:16;99218.81;;;6.66;100.00
44988;BME280;35735;52.226;21.254;2023-12-20T10:58:19;99220.59;;;6.64;100.00
44988;BME280;35735;52.226;21.254;2023-12-20T11:03:20;99220.59;;;6.64;100.00
44988;BME280;35735;52.226;21.254;2023-12-20T11:08:35;99215.25;;;6.62;100.00
44988;BME280;35735;52.226;21.254;2023-12-20T11:13:48;99205.41;;;6.66;100.00
44988;BME280;35735;52.226;21.254;2023-12-20T11:18:55;99196.47;;;6.68;100.00
44988;BME280;35735;52.226;21.254;2023-12-20T11:23:55;99181.25;;;6.66;100.00
44988;BME280;35735;52.226;21.254;2023-12-20T11:34:37;99169.66;;;6.61;100.00
44988;BME280;35735;52.226;21.254;2023-12-20T11:39:38;99167.88;;;6.63;100.00
44988;BME280;35735;52.226;21.254;2023-12-20T11:44:39;99160.72;;;6.63;100.00
44988;BME280;35735;52.226;21.254;2023-12-20T11:49:39;99152.69;;;6.65;100.00
44988;BME280;35735;52.226;21.254;2023-12-20T11:54:40;99141.94;;;6.66;100.00
44988;BME280;35735;52.226;21.254;2023-12-20T11:59:40;99147.28;;;6.68;100.00
44988;BME280;35735;52.226;21.254;2023-12-20T12:04:43;99141.03;;;6.66;100.00
44988;BME280;35735;52.226;21.254;2023-12-20T12:09:43;99128.50;;;6.70;100.00
44988;BME280;35735;52.226;21.254;2023-12-20T12:14:45;99127.62;;;6.69;100.00
44988;BME280;35735;52.226;21.254;2023-12-20T12:19:45;99120.47;;;6.66;100.00
44988;BME280;35735;52.226;21.254;2023-12-20T12:24:47;99115.16;;;6.65;100.00
44988;BME280;35735;52.226;21.254;2023-12-20T12:30:04;99112.50;;;6.59;100.00
44988;BME280;35735;52.226;21.254;2023-12-20T12:35:06;99105.31;;;6.61;100.00
44988;BME280;35735;52.226;21.254;2023-12-20T12:40:10;99095.53;;;6.57;100.00
44988;BME280;35735;52.226;21.254;2023-12-20T12:45:12;99090.19;;;6.51;100.00
44988;BME280;35735;52.226;21.254;2023-12-20T12:50:12;99092.03;;;6.39;100.00
44988;BME280;35735;52.226;21.254;2023-12-20T12:55:13;99093.81;;;6.34;100.00
44988;BME280;35735;52.226;21.254;2023-12-20T13:00:14;99092.97;;;6.29;100.00
44988;BME280;35735;52.226;21.254;2023-12-20T13:05:15;99095.66;;;6.23;100.00
44988;BME280;35735;52.226;21.254;2023-12-20T13:10:15;99098.38;;;6.18;100.00
44988;BME280;35735;52.226;21.254;2023-12-20T13:15:16;99094.78;;;6.16;100.00
44988;BME280;35735;52.226;21.254;2023-12-20T13:20:16;99094.78;;;6.16;100.00
44988;BME280;35735;52.226;21.254;2023-12-20T13:25:17;99102.81;;;6.16;100.00
44988;BME280;35735;52.226;21.254;2023-12-20T13:30:17;99104.63;;;6.14;100.00
44988;BME280;35735;52.226;21.254;2023-12-20T13:35:18;99102.81;;;6.15;100.00
44988;BME280;35735;52.226;21.254;2023-12-20T13:40:19;99104.63;;;6.09;100.00
44988;BME280;35735;52.226;21.254;2023-12-20T13:45:19;99102.88;;;6.02;100.00
44988;BME280;35735;52.226;21.254;2023-12-20T13:50:20;99096.59;;;5.94;100.00
44988;BME280;35735;52.226;21.254;2023-12-20T13:55:20;99090.38;;;5.92;100.00
44988;BME280;35735;52.226;21.254;2023-12-20T14:00:22;99089.50;;;5.87;100.00
44988;BME280;35735;52.226;21.254;2023-12-20T14:05:22;99086.81;;;5.84;100.00
44988;BME280;35735;52.226;21.254;2023-12-20T14:10:23;99102.88;;;5.84;100.00
44988;BME280;35735;52.226;21.254;2023-12-20T14:15:24;99093.97;;;5.72;100.00
44988;BME280;35735;52.226;21.254;2023-12-20T14:20:24;99084.19;;;5.67;100.00
44988;BME280;35735;52.226;21.254;2023-12-20T14:25:25;99094.00;;;5.63;100.00
44988;BME280;35735;52.226;21.254;2023-12-20T14:30:25;99098.44;;;5.63;100.00
44988;BME280;35735;52.226;21.254;2023-12-20T14:35:26;99099.34;;;5.62;100.00
44988;BME280;35735;52.226;21.254;2023-12-20T14:40:26;99106.47;;;5.61;100.00
44988;BME280;35735;52.226;21.254;2023-12-20T14:45:27;99111.81;;;5.60;100.00
44988;BME280;35735;52.226;21.254;2023-12-20T14:50:28;99110.94;;;5.59;100.00
44988;BME280;35735;52.226;21.254;2023-12-20T14:55:28;99110.06;;;5.57;100.00
44988;BME280;35735;52.226;21.254;2023-12-20T15:00:29;99106.50;;;5.56;100.00
44988;BME280;35735;52.226;21.254;2023-12-20T15:05:29;99109.19;;;5.53;100.00
44988;BME280;35735;52.226;21.254;2023-12-20T15:10:30;99104.72;;;5.54;100.00
44988;BME280;35735;52.226;21.254;2023-12-20T15:15:30;99104.72;;;5.54;100.00
44988;BME280;35735;52.226;21.254;2023-12-20T15:20:31;99105.59;;;5.54;100.00
44988;BME280;35735;52.226;21.254;2023-12-20T15:25:32;99101.16;;;5.55;100.00
44988;BME280;35735;52.226;21.254;2023-12-20T15:30:33;99109.19;;;5.56;100.00
44988;BME280;35735;52.226;21.254;2023-12-20T15:35:33;99094.91;;;5.51;100.00
44988;BME280;35735;52.226;21.254;2023-12-20T15:40:34;99085.09;;;5.49;100.00
44988;BME280;35735;52.226;21.254;2023-12-20T15:45:35;99101.13;;;5.46;100.00
44988;BME280;35735;52.226;21.254;2023-12-20T15:50:35;99086.87;;;5.42;100.00
44988;BME280;35735;52.226;21.254;2023-12-20T15:55:36;99078.84;;;5.39;100.00
44988;BME280;35735;52.226;21.254;2023-12-20T16:00:37;99086.87;;;5.37;100.00
44988;BME280;35735;52.226;21.254;2023-12-20T16:05:37;99073.53;;;5.31;100.00
44988;BME280;35735;52.226;21.254;2023-12-20T16:10:38;99065.50;;;5.28;100.00
44988;BME280;35735;52.226;21.254;2023-12-20T16:15:38;99059.25;;;5.25;100.00
44988;BME280;35735;52.226;21.254;2023-12-20T16:20:39;99054.78;;;5.22;100.00
44988;BME280;35735;52.226;21.254;2023-12-20T16:25:40;99040.53;;;5.20;100.00
44988;BME280;35735;52.226;21.254;2023-12-20T16:30:41;99046.75;;;5.20;100.00
44988;BME280;35735;52.226;21.254;2023-12-20T16:35:41;99045.88;;;5.20;100.00
44988;BME280;35735;52.226;21.254;2023-12-20T16:40:42;99033.37;;;5.19;100.00
44988;BME280;35735;52.226;21.254;2023-12-20T16:45:42;99047.63;;;5.24;100.00
44988;BME280;35735;52.226;21.254;2023-12-20T16:50:43;99041.41;;;5.24;100.00
44988;BME280;35735;52.226;21.254;2023-12-20T16:55:43;99036.94;;;5.21;100.00
44988;BME280;35735;52.226;21.254;2023-12-20T17:00:44;99042.28;;;5.24;100.00
44988;BME280;35735;52.226;21.254;2023-12-20T17:05:44;99038.72;;;5.25;100.00
44988;BME280;35735;52.226;21.254;2023-12-20T17:10:45;99031.59;;;5.24;100.00
44988;BME280;35735;52.226;21.254;2023-12-20T17:15:46;99038.72;;;5.22;100.00
44988;BME280;35735;52.226;21.254;2023-12-20T17:20:46;99029.81;;;5.23;100.00
44988;BME280;35735;52.226;21.254;2023-12-20T17:25:47;99035.16;;;5.20;100.00
44988;BME280;35735;52.226;21.254;2023-12-20T17:30:47;99016.44;;;5.18;100.00
44988;BME280;35735;52.226;21.254;2023-12-20T17:35:48;99013.75;;;5.15;100.00
44988;BME280;35735;52.226;21.254;2023-12-20T17:40:48;99008.41;;;5.12;100.00
44988;BME280;35735;52.226;21.254;2023-12-20T17:45:49;98994.16;;;5.18;100.00
44988;BME280;35735;52.226;21.254;2023-12-20T17:50:49;98992.38;;;5.14;100.00
44988;BME280;35735;52.226;21.254;2023-12-20T17:55:50;98996.84;;;5.12;100.00
44988;BME280;35735;52.226;21.254;2023-12-20T18:00:50;98993.28;;;5.13;100.00
44988;BME280;35735;52.226;21.254;2023-12-20T18:05:51;98990.59;;;5.13;100.00
44988;BME280;35735;52.226;21.254;2023-12-20T18:10:52;98987.94;;;5.10;100.00
44988;BME280;35735;52.226;21.254;2023-12-20T18:15:52;98970.09;;;5.10;100.00
44988;BME280;35735;52.226;21.254;2023-12-20T18:20:53;98976.31;;;5.11;100.00
44988;BME280;35735;52.226;21.254;2023-12-20T18:25:53;98971.87;;;5.07;100.00
44988;BME280;35735;52.226;21.254;2023-12-20T18:30:54;98967.41;;;5.09;100.00
44988;BME280;35735;52.226;21.254;2023-12-20T18:35:55;98966.53;;;5.11;100.00
44988;BME280;35735;52.226;21.254;2023-12-20T18:40:56;98956.72;;;5.12;100.00
44988;BME280;35735;52.226;21.254;2023-12-20T18:45:57;98959.41;;;5.12;100.00
44988;BME280;35735;52.226;21.254;2023-12-20T18:50:57;98961.16;;;5.14;100.00
44988;BME280;35735;52.226;21.254;2023-12-20T18:55:58;98949.56;;;5.11;100.00
44988;BME280;35735;52.226;21.254;2023-12-20T19:00:58;98946.03;;;5.09;100.00
44988;BME280;35735;52.226;21.254;2023-12-20T19:05:59;98941.59;;;5.06;100.00
44988;BME280;35735;52.226;21.254;2023-12-20T19:11:00;98946.03;;;5.06;100.00
44988;BME280;35735;52.226;21.254;2023-12-20T19:16:01;98945.12;;;5.02;100.00
44988;BME280;35735;52.226;21.254;2023-12-20T19:21:01;98947.81;;;5.02;100.00
44988;BME280;35735;52.226;21.254;2023-12-20T19:26:02;98944.25;;;5.05;100.00
44988;BME280;35735;52.226;21.254;2023-12-20T19:31:03;98952.28;;;5.06;100.00
44988;BME280;35735;52.226;21.254;2023-12-20T19:36:05;98956.72;;;5.03;100.00
44988;BME280;35735;52.226;21.254;2023-12-20T19:41:07;98962.97;;;4.97;100.00
44988;BME280;35735;52.226;21.254;2023-12-20T19:46:08;98957.63;;;4.89;100.00
44988;BME280;35735;52.226;21.254;2023-12-20T19:51:08;98966.53;;;4.82;100.00
44988;BME280;35735;52.226;21.254;2023-12-20T19:56:09;98979.91;;;4.73;100.00
44988;BME280;35735;52.226;21.254;2023-12-20T20:01:10;98982.56;;;4.59;100.00
44988;BME280;35735;52.226;21.254;2023-12-20T20:06:10;98968.31;;;4.46;100.00
44988;BME280;35735;52.226;21.254;2023-12-20T20:11:11;98958.47;;;4.36;100.00
44988;BME280;35735;52.226;21.254;2023-12-20T20:16:12;98967.38;;;4.29;100.00
44988;BME280;35735;52.226;21.254;2023-12-20T20:21:12;98973.59;;;4.21;100.00
44988;BME280;35735;52.226;21.254;2023-12-20T20:26:13;98978.94;;;4.18;100.00
44988;BME280;35735;52.226;21.254;2023-12-20T20:31:13;98989.59;;;4.11;100.00
44988;BME280;35735;52.226;21.254;2023-12-20T20:36:14;98990.44;;;4.02;100.00
44988;BME280;35735;52.226;21.254;2023-12-20T20:41:15;98981.53;;;3.97;100.00
44988;BME280;35735;52.226;21.254;2023-12-20T20:46:15;98984.22;;;3.97;100.00
44988;BME280;35735;52.226;21.254;2023-12-20T20:51:16;99001.09;;;3.89;100.00
44988;BME280;35735;52.226;21.254;2023-12-20T20:56:16;99005.53;;;3.86;100.00
44988;BME280;35735;52.226;21.254;2023-12-20T21:01:17;99006.38;;;3.77;100.00
44988;BME280;35735;52.226;21.254;2023-12-20T21:06:18;99004.56;;;3.73;100.00
44988;BME280;35735;52.226;21.254;2023-12-20T21:11:18;98988.59;;;3.76;100.00
44988;BME280;35735;52.226;21.254;2023-12-20T21:16:19;98998.34;;;3.74;100.00
44988;BME280;35735;52.226;21.254;2023-12-20T21:21:20;99008.97;;;3.62;100.00
44988;BME280;35735;52.226;21.254;2023-12-20T21:26:20;99014.25;;;3.56;100.00
44988;BME280;35735;52.226;21.254;2023-12-20T21:31:21;99009.78;;;3.48;100.00
44988;BME280;35735;52.226;21.254;2023-12-20T21:36:22;99017.81;;;3.53;100.00
44988;BME280;35735;52.226;21.254;2023-12-20T21:41:22;99016.91;;;3.56;100.00
44988;BME280;35735;52.226;21.254;2023-12-20T21:46:23;99017.81;;;3.51;100.00
44988;BME280;35735;52.226;21.254;2023-12-20T21:51:24;99013.34;;;3.50;100.00
44988;BME280;35735;52.226;21.254;2023-12-20T21:56:25;99024.00;;;3.49;100.00
44988;BME280;35735;52.226;21.254;2023-12-20T22:01:25;99011.59;;;3.52;100.00
44988;BME280;35735;52.226;21.254;2023-12-20T22:06:26;99022.28;;;3.52;100.00
44988;BME280;35735;52.226;21.254;2023-12-20T22:11:27;99016.00;;;3.49;100.00
44988;BME280;35735;52.226;21.254;2023-12-20T22:16:28;99027.56;;;3.49;100.00
44988;BME280;35735;52.226;21.254;2023-12-20T22:21:29;99039.16;;;3.55;100.00
44988;BME280;35735;52.226;21.254;2023-12-20T22:26:30;99038.34;;;3.65;100.00
44988;BME280;35735;52.226;21.254;2023-12-20T22:31:30;99023.22;;;3.68;100.00
44988;BME280;35735;52.226;21.254;2023-12-20T22:36:31;99025.03;;;3.69;100.00
44988;BME280;35735;52.226;21.254;2023-12-20T22:41:31;99029.47;;;3.74;100.00
44988;BME280;35735;52.226;21.254;2023-12-20T22:46:32;99028.62;;;3.76;100.00
44988;BME280;35735;52.226;21.254;2023-12-20T22:51:32;99022.41;;;3.83;100.00
44988;BME280;35735;52.226;21.254;2023-12-20T22:56:33;99022.44;;;3.88;100.00
44988;BME280;35735;52.226;21.254;2023-12-20T23:01:34;99027.78;;;3.88;100.00
44988;BME280;35735;52.226;21.254;2023-12-20T23:06:34;99018.84;;;3.87;100.00
44988;BME280;35735;52.226;21.254;2023-12-20T23:11:35;99020.63;;;3.85;100.00
44988;BME280;35735;52.226;21.254;2023-12-20T23:16:37;99031.34;;;3.88;100.00
44988;BME280;35735;52.226;21.254;2023-12-20T23:21:37;99025.09;;;3.86;100.00
44988;BME280;35735;52.226;21.254;2023-12-20T23:26:38;99025.97;;;3.79;100.00
44988;BME280;35735;52.226;21.254;2023-12-20T23:31:38;99020.59;;;3.73;100.00
44988;BME280;35735;52.226;21.254;2023-12-20T23:36:39;99023.25;;;3.71;100.00
44988;BME280;35735;52.226;21.254;2023-12-20T23:41:40;99017.91;;;3.71;100.00
44988;BME280;35735;52.226;21.254;2023-12-20T23:46:40;99020.63;;;3.76;100.00
44988;BME280;35735;52.226;21.254;2023-12-20T23:51:41;99017.06;;;3.80;100.00
44988;BME280;35735;52.226;21.254;2023-12-20T23:56:41;99005.50;;;3.81;100.00
